Accueil
METAR-TAF:

METAR-TAF

Aéroports :

Aérodrome de Granges

Granges, Suisse

latitude: 47-10-53N, longitude: 007-24-59E, altitude: 430 m

Observation

Le bulletin a été fait il y a 26 minutes, à 19:20 UTC
Vent 3 kt de est/nord-est
Température 2°C
Humidité 93%
Pression 1016 hPa
Visibilité: 5000 m
Ciel couvert à une hauteur de 6000 ft

METAR: LSZG 211920Z AUTO 07003KT 5000 OVC060 02/01 Q1016

Heure: 20:46 (19:46 UTC)

Prévision

Le bulletin a été fait il y a 1 heure et 31 minutes, à 18:15 UTC
Prévision valable du 21 à 18 UTC au 21 à 24 UTC
Vent 3 kt de direction variable
Visibilité: 4000 m
Nuages fragmentés à une hauteur de 6000 ft
brume
Evoluant progressivement
du 21 à 21 UTC au 21 à 24 UTC
Ciel couvert à une hauteur de 1300 ft

TAF: LSZG 211815Z 2118/2124 VRB03KT 4000 BR BKN060 BECMG 2121/2124 OVC013

Observations et prévisions météorologiques de plus de 4000 aéroports (messages METAR et TAF).

Les stations disponibles sont représentées par des disques jaunes et rouges sur la carte.

Passer la souris dessus pour voir le nom de la station.

Cliquer dessus pour voir les observations et prévisions météorologiques.

Pour changer de carte: cliquez sur les boutons verts avec une croix noire pour zoomer, sur le bouton vert avec un tiret pour effectuer un zoom arrière, ou sur les flèches vertes pour les cartes adjacentes.


METAR-TAF: